Time;durP1;ratioP1;P1;durP2;ratioP2;P2;SDS_P1;SDS_P2;PMS_P1;PMS_P2;Temp;Humidity;BMP_temperature;BMP_pressure;BME280_temperature;BME280_humidity;BME280_pressure;Samples;Min_cycle;Max_cycle;Signal;HPM_P1;HPM_P2
2022/04/07 00:01:55;;;;;;;6.10;3.42;;;;;;;;;;5065780;28;20040;-64
2022/04/07 00:04:22;;;;;;;5.93;3.13;;;;;;;;;;5061763;28;20114;-64
2022/04/07 00:06:48;;;;;;;5.47;3.30;;;;;;;;;;5061848;28;20135;-64
2022/04/07 00:09:15;;;;;;;7.10;3.45;;;;;;;;;;5064862;28;20052;-64
2022/04/07 00:11:41;;;;;;;6.95;3.50;;;;;;;;;;5058353;28;20048;-64
2022/04/07 00:14:08;;;;;;;5.55;3.40;;;;;;;;;;5065160;28;20056;-64
2022/04/07 00:16:34;;;;;;;5.20;3.45;;;;;;;;;;5057958;28;20051;-65
2022/04/07 00:19:01;;;;;;;5.80;3.63;;;;;;;;;;5061976;28;20595;-64
2022/04/07 00:21:35;;;;;;;6.05;3.33;;;;;;;;;;5065147;28;20044;-64
2022/04/07 00:24:05;;;;;;;7.03;3.53;;;;;;;;;;5059021;28;20048;-64
2022/04/07 00:26:32;;;;;;;7.22;3.90;;;;;;;;;;5066564;28;20044;-64
2022/04/07 00:28:58;;;;;;;8.35;3.70;;;;;;;;;;5057888;28;20124;-64
2022/04/07 00:31:24;;;;;;;7.60;3.70;;;;;;;;;;5059125;28;20041;-65
2022/04/07 00:33:51;;;;;;;4.90;3.30;;;;;;;;;;5066686;28;20040;-65
2022/04/07 00:36:17;;;;;;;9.18;3.80;;;;;;;;;;5070973;28;20060;-64
2022/04/07 00:38:44;;;;;;;5.25;3.70;;;;;;;;;;5068820;28;20644;-64
2022/04/07 00:41:10;;;;;;;8.07;3.95;;;;;;;;;;5057830;28;20052;-64
2022/04/07 00:43:37;;;;;;;6.72;3.15;;;;;;;;;;5063064;28;20754;-64
2022/04/07 00:46:04;;;;;;;5.68;2.92;;;;;;;;;;5054212;28;20056;-64
2022/04/07 00:48:35;;;;;;;7.38;3.15;;;;;;;;;;5065480;28;20092;-64
2022/04/07 00:51:02;;;;;;;5.25;2.55;;;;;;;;;;5067329;28;20124;-64
2022/04/07 00:53:29;;;;;;;7.90;2.50;;;;;;;;;;5068469;28;20051;-64
2022/04/07 00:56:00;;;;;;;5.28;2.42;;;;;;;;;;5069949;28;20048;-64
2022/04/07 00:58:27;;;;;;;4.97;2.80;;;;;;;;;;5053154;28;20048;-64
2022/04/07 01:00:54;;;;;;;10.45;2.55;;;;;;;;;;5063858;28;20478;-65
2022/04/07 01:03:20;;;;;;;5.50;2.45;;;;;;;;;;5060080;28;20047;-65
2022/04/07 01:05:46;;;;;;;7.70;2.42;;;;;;;;;;5069944;28;20044;-65
2022/04/07 01:08:13;;;;;;;11.98;2.65;;;;;;;;;;5063154;28;20053;-65
2022/04/07 01:10:39;;;;;;;5.95;2.17;;;;;;;;;;5065438;28;20051;-65
2022/04/07 01:13:05;;;;;;;6.53;1.95;;;;;;;;;;5068971;28;20063;-66
2022/04/07 01:15:32;;;;;;;4.43;1.60;;;;;;;;;;5067634;28;20049;-65
2022/04/07 01:17:59;;;;;;;5.93;1.77;;;;;;;;;;5073539;28;20453;-65
2022/04/07 01:20:26;;;;;;;5.18;1.90;;;;;;;;;;5064586;28;20356;-65
2022/04/07 01:22:53;;;;;;;9.48;2.20;;;;;;;;;;5069028;28;20460;-66
2022/04/07 01:25:19;;;;;;;8.88;2.15;;;;;;;;;;5059460;28;20522;-65
2022/04/07 01:27:49;;;;;;;9.40;2.85;;;;;;;;;;5064431;28;20103;-65
2022/04/07 01:30:15;;;;;;;9.25;2.30;;;;;;;;;;5070860;28;20049;-65
2022/04/07 01:32:44;;;;;;;9.60;2.00;;;;;;;;;;5062187;28;20425;-65
2022/04/07 01:35:10;;;;;;;6.00;1.83;;;;;;;;;;5072184;28;20084;-66
2022/04/07 01:37:37;;;;;;;12.68;2.53;;;;;;;;;;5064070;28;20056;-65
2022/04/07 01:40:04;;;;;;;9.43;2.50;;;;;;;;;;5071527;28;20037;-65
2022/04/07 01:42:32;;;;;;;8.75;2.47;;;;;;;;;;5060840;28;20044;-65
2022/04/07 01:45:00;;;;;;;8.35;2.17;;;;;;;;;;5072545;28;20538;-65
2022/04/07 01:47:27;;;;;;;4.65;2.30;;;;;;;;;;5071875;28;20048;-66
2022/04/07 01:50:02;;;;;;;7.78;2.20;;;;;;;;;;5060933;28;20045;-65
2022/04/07 01:52:29;;;;;;;5.95;2.30;;;;;;;;;;5074540;28;20380;-65
2022/04/07 01:54:57;;;;;;;7.55;2.10;;;;;;;;;;5058904;28;20045;-65
2022/04/07 01:57:24;;;;;;;7.43;1.88;;;;;;;;;;5083150;28;20052;-65
2022/04/07 01:59:51;;;;;;;9.80;2.25;;;;;;;;;;5079069;28;20044;-65
2022/04/07 02:02:18;;;;;;;6.78;1.88;;;;;;;;;;5086365;28;20513;-65
2022/04/07 02:04:51;;;;;;;7.22;2.28;;;;;;;;;;5087415;28;20131;-65
2022/04/07 02:07:17;;;;;;;8.43;2.60;;;;;;;;;;5071458;28;20056;-65
2022/04/07 02:09:44;;;;;;;10.70;2.55;;;;;;;;;;5068734;28;20528;-65
2022/04/07 02:12:10;;;;;;;6.40;2.50;;;;;;;;;;5061589;28;20053;-65
2022/04/07 02:14:36;;;;;;;9.60;2.92;;;;;;;;;;5073559;28;20176;-66
2022/04/07 02:17:03;;;;;;;8.75;2.20;;;;;;;;;;5068895;28;20048;-65
2022/04/07 02:19:30;;;;;;;7.78;2.72;;;;;;;;;;5069601;28;20048;-65
2022/04/07 02:21:56;;;;;;;9.80;2.55;;;;;;;;;;5067406;28;20051;-65
2022/04/07 02:24:23;;;;;;;8.57;2.55;;;;;;;;;;5066525;28;20071;-65
2022/04/07 02:26:49;;;;;;;9.00;2.95;;;;;;;;;;5084219;28;20044;-65
2022/04/07 02:29:15;;;;;;;11.25;2.53;;;;;;;;;;5071721;28;20051;-65
2022/04/07 02:31:41;;;;;;;10.05;3.22;;;;;;;;;;5073019;28;20456;-65
2022/04/07 02:34:08;;;;;;;7.70;2.47;;;;;;;;;;5082731;28;20039;-65
2022/04/07 02:36:34;;;;;;;7.20;2.20;;;;;;;;;;5076202;28;20052;-65
2022/04/07 02:39:01;;;;;;;11.20;2.78;;;;;;;;;;5076476;28;20036;-65
2022/04/07 02:41:31;;;;;;;8.80;2.70;;;;;;;;;;5067413;28;20051;-65
2022/04/07 02:43:57;;;;;;;7.95;3.05;;;;;;;;;;5078871;28;20044;-64
2022/04/07 02:46:24;;;;;;;7.50;2.28;;;;;;;;;;5074734;28;20048;-65
2022/04/07 02:48:50;;;;;;;12.50;3.10;;;;;;;;;;5065829;28;20040;-64
2022/04/07 02:51:16;;;;;;;11.70;2.42;;;;;;;;;;5067439;28;20048;-66
2022/04/07 02:53:43;;;;;;;11.35;2.42;;;;;;;;;;5077109;28;20059;-65
2022/04/07 02:56:09;;;;;;;9.85;3.28;;;;;;;;;;5085022;28;20048;-66
2022/04/07 02:58:35;;;;;;;8.70;2.63;;;;;;;;;;5072294;28;20055;-65
2022/04/07 03:01:02;;;;;;;10.25;2.42;;;;;;;;;;5085250;28;20047;-64
2022/04/07 03:03:28;;;;;;;7.38;2.10;;;;;;;;;;5066343;28;20093;-64
2022/04/07 03:05:54;;;;;;;11.45;2.53;;;;;;;;;;5078131;28;20574;-64
2022/04/07 03:08:21;;;;;;;10.77;2.60;;;;;;;;;;5075214;28;20604;-64
2022/04/07 03:10:47;;;;;;;13.40;2.70;;;;;;;;;;5082237;28;20086;-64
2022/04/07 03:13:14;;;;;;;10.13;2.60;;;;;;;;;;5079409;28;20044;-64
2022/04/07 03:15:40;;;;;;;11.50;2.78;;;;;;;;;;5070665;28;20044;-64
2022/04/07 03:18:06;;;;;;;13.50;3.33;;;;;;;;;;5082449;28;20052;-64
2022/04/07 03:20:33;;;;;;;14.02;3.00;;;;;;;;;;5065158;28;20421;-65
2022/04/07 03:22:59;;;;;;;9.82;2.28;;;;;;;;;;5074774;28;20064;-64
2022/04/07 03:25:26;;;;;;;6.80;1.83;;;;;;;;;;5070305;28;20063;-65
2022/04/07 03:27:52;;;;;;;9.93;2.60;;;;;;;;;;5073738;28;20555;-64
2022/04/07 03:30:18;;;;;;;8.68;1.98;;;;;;;;;;5068177;28;20052;-65
2022/04/07 03:32:45;;;;;;;12.48;2.83;;;;;;;;;;5058919;28;20048;-64
2022/04/07 03:35:11;;;;;;;13.60;2.72;;;;;;;;;;5073185;28;20762;-65
2022/04/07 03:37:38;;;;;;;12.25;2.67;;;;;;;;;;5069874;28;20082;-65
2022/04/07 03:40:04;;;;;;;9.75;2.22;;;;;;;;;;5069106;28;20375;-65
2022/04/07 03:42:31;;;;;;;10.20;2.13;;;;;;;;;;5069166;28;20053;-64
2022/04/07 03:44:57;;;;;;;10.77;2.28;;;;;;;;;;5062996;28;20042;-65
2022/04/07 03:47:23;;;;;;;11.35;1.95;;;;;;;;;;5073784;28;20060;-64
2022/04/07 03:49:50;;;;;;;9.98;2.65;;;;;;;;;;5059737;28;20052;-64
2022/04/07 03:52:17;;;;;;;13.80;2.75;;;;;;;;;;5075887;28;20040;-64
2022/04/07 03:54:43;;;;;;;8.07;2.28;;;;;;;;;;5067438;28;20052;-65
2022/04/07 03:57:09;;;;;;;11.10;2.72;;;;;;;;;;5067708;28;20063;-64
2022/04/07 03:59:38;;;;;;;7.28;2.00;;;;;;;;;;5063495;28;20048;-64
2022/04/07 04:02:05;;;;;;;8.52;2.38;;;;;;;;;;5055740;28;20056;-64
2022/04/07 04:04:31;;;;;;;7.70;2.15;;;;;;;;;;5067564;28;20117;-64
2022/04/07 04:06:58;;;;;;;8.88;2.35;;;;;;;;;;5061402;28;20774;-64
2022/04/07 04:09:24;;;;;;;13.13;2.28;;;;;;;;;;5078441;28;20052;-64
2022/04/07 04:11:50;;;;;;;9.32;2.35;;;;;;;;;;5071128;28;20645;-65
2022/04/07 04:14:17;;;;;;;11.95;2.45;;;;;;;;;;5079799;28;20051;-65
2022/04/07 04:16:43;;;;;;;11.48;2.42;;;;;;;;;;5076989;28;20088;-64
2022/04/07 04:19:10;;;;;;;8.07;1.80;;;;;;;;;;5061014;28;20132;-65
2022/04/07 04:21:36;;;;;;;6.07;1.92;;;;;;;;;;5079514;28;20463;-64
2022/04/07 04:24:03;;;;;;;11.50;2.20;;;;;;;;;;5076793;28;20062;-64
2022/04/07 04:26:29;;;;;;;9.60;2.08;;;;;;;;;;5080716;28;20055;-64
2022/04/07 04:28:56;;;;;;;12.65;2.22;;;;;;;;;;5087062;28;20054;-64
2022/04/07 04:31:24;;;;;;;8.18;2.20;;;;;;;;;;5106094;28;20035;-64
2022/04/07 04:33:51;;;;;;;9.40;2.03;;;;;;;;;;5101281;28;20097;-64
2022/04/07 04:36:17;;;;;;;10.73;2.22;;;;;;;;;;5085100;28;20052;-64
2022/04/07 04:38:44;;;;;;;6.63;1.50;;;;;;;;;;5086713;28;20056;-64
2022/04/07 04:41:10;;;;;;;8.02;2.10;;;;;;;;;;5075994;28;20048;-64
2022/04/07 04:43:36;;;;;;;8.25;2.38;;;;;;;;;;5082582;28;20051;-64
2022/04/07 04:46:03;;;;;;;6.88;1.77;;;;;;;;;;5086838;27;20772;-64
2022/04/07 04:48:29;;;;;;;6.97;1.75;;;;;;;;;;5102703;28;20116;-64
2022/04/07 04:50:56;;;;;;;12.48;2.67;;;;;;;;;;5091903;27;20048;-64
2022/04/07 04:53:22;;;;;;;9.90;2.17;;;;;;;;;;5091755;27;20074;-64
2022/04/07 04:55:49;;;;;;;9.23;2.17;;;;;;;;;;5086068;28;20347;-64
2022/04/07 04:58:15;;;;;;;10.93;2.28;;;;;;;;;;5080052;28;20044;-64
2022/04/07 05:00:42;;;;;;;11.70;2.28;;;;;;;;;;5090225;28;20052;-64
2022/04/07 05:03:08;;;;;;;10.95;2.22;;;;;;;;;;5068097;28;20044;-64
2022/04/07 05:05:35;;;;;;;6.63;2.05;;;;;;;;;;5091328;28;20047;-64
2022/04/07 05:08:01;;;;;;;7.70;1.90;;;;;;;;;;5090307;28;20043;-64
2022/04/07 05:10:27;;;;;;;5.03;1.80;;;;;;;;;;5079600;28;20040;-65
2022/04/07 05:12:54;;;;;;;6.07;1.60;;;;;;;;;;5086347;28;20052;-65
2022/04/07 05:15:20;;;;;;;8.05;1.90;;;;;;;;;;5085179;28;20533;-64
2022/04/07 05:17:50;;;;;;;6.65;1.98;;;;;;;;;;5101251;28;20552;-65
2022/04/07 05:20:16;;;;;;;4.97;1.67;;;;;;;;;;5094428;28;20051;-65
2022/04/07 05:22:43;;;;;;;8.88;1.77;;;;;;;;;;5087195;28;20055;-65
2022/04/07 05:25:10;;;;;;;6.00;1.63;;;;;;;;;;5082508;28;20056;-64
2022/04/07 05:27:37;;;;;;;3.67;1.23;;;;;;;;;;5081330;28;20059;-64
2022/04/07 05:30:04;;;;;;;5.25;1.45;;;;;;;;;;5107917;27;20067;-65
2022/04/07 05:32:31;;;;;;;6.13;1.35;;;;;;;;;;5083723;27;20194;-65
2022/04/07 05:34:57;;;;;;;4.30;1.42;;;;;;;;;;5090966;28;20048;-65
2022/04/07 05:37:24;;;;;;;5.00;1.35;;;;;;;;;;5087526;27;20059;-65
2022/04/07 05:39:53;;;;;;;3.33;1.10;;;;;;;;;;5078257;28;20043;-64
2022/04/07 05:42:19;;;;;;;2.63;1.10;;;;;;;;;;5090848;28;20044;-64
2022/04/07 05:44:46;;;;;;;5.60;1.25;;;;;;;;;;5085460;27;20043;-64
2022/04/07 05:47:12;;;;;;;3.15;1.25;;;;;;;;;;5091754;28;20050;-65
2022/04/07 05:49:38;;;;;;;3.25;1.10;;;;;;;;;;5097828;28;20047;-65
2022/04/07 05:52:05;;;;;;;2.80;1.30;;;;;;;;;;5099035;27;20047;-65
2022/04/07 05:54:35;;;;;;;9.73;1.90;;;;;;;;;;5088378;28;20587;-65
2022/04/07 05:57:02;;;;;;;2.00;1.00;;;;;;;;;;5082219;28;20058;-65
2022/04/07 05:59:28;;;;;;;4.95;1.52;;;;;;;;;;5094382;28;20076;-65
2022/04/07 06:01:55;;;;;;;5.80;0.95;;;;;;;;;;5081802;28;20044;-65
2022/04/07 06:04:21;;;;;;;3.15;1.20;;;;;;;;;;5088853;27;20139;-65
2022/04/07 06:06:48;;;;;;;2.60;1.10;;;;;;;;;;5078034;28;20105;-65
2022/04/07 06:09:14;;;;;;;4.65;1.60;;;;;;;;;;5090324;28;20048;-65
2022/04/07 06:11:41;;;;;;;3.25;1.27;;;;;;;;;;5088168;28;20048;-65
2022/04/07 06:14:07;;;;;;;2.28;0.90;;;;;;;;;;5085021;28;20043;-65
2022/04/07 06:16:33;;;;;;;6.72;1.50;;;;;;;;;;5101254;28;20069;-65
2022/04/07 06:19:00;;;;;;;3.28;1.17;;;;;;;;;;5083627;28;20047;-64
2022/04/07 06:21:29;;;;;;;4.07;1.20;;;;;;;;;;5096198;28;20039;-64
2022/04/07 06:23:57;;;;;;;2.67;1.20;;;;;;;;;;5098590;28;20564;-64
2022/04/07 06:26:23;;;;;;;3.20;1.38;;;;;;;;;;5088657;28;20433;-65
2022/04/07 06:28:49;;;;;;;4.57;1.40;;;;;;;;;;5108122;27;20091;-64
2022/04/07 06:31:16;;;;;;;7.28;1.58;;;;;;;;;;5081021;27;20070;-64
2022/04/07 06:33:42;;;;;;;4.47;1.40;;;;;;;;;;5071140;27;20075;-64
2022/04/07 06:36:28;;;;;;;1.55;1.25;;;;;;;;;;5082121;28;20047;-64
2022/04/07 06:38:55;;;;;;;3.50;1.70;;;;;;;;;;5092401;28;20036;-64
2022/04/07 06:41:21;;;;;;;4.35;1.90;;;;;;;;;;5087440;28;20048;-64
2022/04/07 06:43:51;;;;;;;7.20;2.10;;;;;;;;;;5088368;28;20044;-64
2022/04/07 06:46:19;;;;;;;4.38;1.55;;;;;;;;;;5084426;27;20060;-64
2022/04/07 06:48:45;;;;;;;4.95;1.60;;;;;;;;;;5077589;28;20564;-65
2022/04/07 06:51:11;;;;;;;8.15;2.20;;;;;;;;;;5093101;27;20709;-64
2022/04/07 06:53:38;;;;;;;8.88;2.50;;;;;;;;;;5081301;27;20119;-64
2022/04/07 06:56:04;;;;;;;7.88;2.20;;;;;;;;;;5088701;28;20173;-64
2022/04/07 06:58:30;;;;;;;8.85;2.67;;;;;;;;;;5081726;27;20055;-64
2022/04/07 07:00:56;;;;;;;6.10;2.17;;;;;;;;;;5082838;28;20052;-64
2022/04/07 07:03:23;;;;;;;4.55;1.77;;;;;;;;;;5083338;28;20043;-65
2022/04/07 07:05:49;;;;;;;6.13;2.10;;;;;;;;;;5083568;28;20048;-64
2022/04/07 07:08:15;;;;;;;8.65;2.40;;;;;;;;;;5098884;28;20082;-64
2022/04/07 07:10:42;;;;;;;8.25;2.67;;;;;;;;;;5084534;28;20047;-64
2022/04/07 07:13:09;;;;;;;7.10;2.75;;;;;;;;;;5093371;28;20417;-64
2022/04/07 07:15:35;;;;;;;4.90;0.88;;;;;;;;;;5077336;28;20533;-64
2022/04/07 07:18:02;;;;;;;3.13;0.40;;;;;;;;;;5091002;28;20123;-64
2022/04/07 07:20:28;;;;;;;12.15;1.60;;;;;;;;;;5090045;27;20059;-64
2022/04/07 07:22:54;;;;;;;1.95;0.55;;;;;;;;;;5088196;28;20420;-65
2022/04/07 07:25:20;;;;;;;2.55;0.55;;;;;;;;;;5106362;27;20048;-64
2022/04/07 07:27:47;;;;;;;1.17;0.60;;;;;;;;;;5077092;28;20051;-64
2022/04/07 07:30:15;;;;;;;4.72;0.77;;;;;;;;;;5091857;27;20129;-64
2022/04/07 07:32:51;;;;;;;2.85;0.60;;;;;;;;;;5093809;28;20048;-64
2022/04/07 07:35:18;;;;;;;3.88;0.70;;;;;;;;;;5094942;28;20048;-64
2022/04/07 07:37:48;;;;;;;6.72;0.60;;;;;;;;;;5092142;27;20051;-64
2022/04/07 07:40:15;;;;;;;4.50;0.85;;;;;;;;;;5084199;28;20058;-64
2022/04/07 07:42:42;;;;;;;4.70;1.08;;;;;;;;;;5085567;27;20477;-64
2022/04/07 07:45:09;;;;;;;2.00;0.52;;;;;;;;;;5091105;27;20488;-64
2022/04/07 07:47:35;;;;;;;2.72;0.70;;;;;;;;;;5106079;27;20059;-64
2022/04/07 07:50:03;;;;;;;2.22;0.70;;;;;;;;;;5080535;28;20138;-64
2022/04/07 07:52:29;;;;;;;1.33;0.50;;;;;;;;;;5089260;27;20064;-64
2022/04/07 07:54:55;;;;;;;3.90;1.15;;;;;;;;;;5087444;28;20043;-65
2022/04/07 07:57:22;;;;;;;2.00;0.65;;;;;;;;;;5072639;28;20056;-64
2022/04/07 07:59:50;;;;;;;4.13;1.05;;;;;;;;;;5086546;28;20054;-64
2022/04/07 08:02:18;;;;;;;1.88;0.55;;;;;;;;;;5081853;28;20056;-64
2022/04/07 08:04:45;;;;;;;3.20;0.90;;;;;;;;;;5090597;28;20075;-65
2022/04/07 08:07:11;;;;;;;6.40;0.95;;;;;;;;;;5082907;28;20047;-65
2022/04/07 08:09:37;;;;;;;5.63;1.15;;;;;;;;;;5085644;28;20043;-64
2022/04/07 08:12:04;;;;;;;1.95;0.90;;;;;;;;;;5097991;28;20052;-64
2022/04/07 08:14:31;;;;;;;2.30;0.90;;;;;;;;;;5085005;28;20052;-65
2022/04/07 08:16:57;;;;;;;2.67;0.90;;;;;;;;;;5102878;28;20059;-64
2022/04/07 08:19:24;;;;;;;7.22;1.55;;;;;;;;;;5096068;27;20044;-64
2022/04/07 08:21:50;;;;;;;4.63;0.88;;;;;;;;;;5103814;28;20040;-64
2022/04/07 08:24:18;;;;;;;4.68;1.00;;;;;;;;;;5088249;28;20058;-64
2022/04/07 08:26:45;;;;;;;5.65;1.48;;;;;;;;;;5085354;27;20047;-64
2022/04/07 08:29:11;;;;;;;8.50;1.10;;;;;;;;;;5106869;27;20146;-65
2022/04/07 08:31:38;;;;;;;6.70;1.10;;;;;;;;;;5107209;27;20055;-64
2022/04/07 08:34:04;;;;;;;4.45;1.00;;;;;;;;;;5103861;27;20571;-65
2022/04/07 08:36:34;;;;;;;4.57;1.40;;;;;;;;;;5084959;28;20536;-65
2022/04/07 08:39:01;;;;;;;5.30;1.10;;;;;;;;;;5095049;28;20078;-64
2022/04/07 08:41:31;;;;;;;5.57;1.10;;;;;;;;;;5085076;28;20420;-65
2022/04/07 08:43:58;;;;;;;2.35;0.90;;;;;;;;;;5102401;28;20067;-66
2022/04/07 08:46:30;;;;;;;4.63;1.20;;;;;;;;;;5108393;27;20054;-66
2022/04/07 08:48:58;;;;;;;6.45;1.65;;;;;;;;;;5076820;28;20101;-66
2022/04/07 08:51:26;;;;;;;8.55;1.73;;;;;;;;;;5091827;28;20056;-66
2022/04/07 08:53:53;;;;;;;3.42;1.13;;;;;;;;;;5083487;28;20445;-66
2022/04/07 08:56:19;;;;;;;14.38;1.95;;;;;;;;;;5091078;28;20048;-66
2022/04/07 08:58:45;;;;;;;12.65;1.80;;;;;;;;;;5088990;27;20211;-66
2022/04/07 09:01:12;;;;;;;4.25;1.27;;;;;;;;;;5086208;28;20076;-66
2022/04/07 09:03:38;;;;;;;3.13;1.30;;;;;;;;;;5081164;28;20063;-65
2022/04/07 09:06:05;;;;;;;3.80;1.25;;;;;;;;;;5086485;28;20044;-64
2022/04/07 09:08:36;;;;;;;5.03;1.13;;;;;;;;;;5086861;28;20048;-64
2022/04/07 09:11:03;;;;;;;8.10;1.95;;;;;;;;;;5086973;28;20051;-65
2022/04/07 09:13:30;;;;;;;4.57;1.15;;;;;;;;;;5088300;28;20045;-65
2022/04/07 09:15:58;;;;;;;7.30;1.55;;;;;;;;;;5097059;27;20040;-65
2022/04/07 09:18:24;;;;;;;3.63;1.20;;;;;;;;;;5102121;28;20054;-65
2022/04/07 09:20:51;;;;;;;3.72;1.45;;;;;;;;;;5087524;28;20131;-65
2022/04/07 09:23:18;;;;;;;6.82;1.40;;;;;;;;;;5091265;27;20047;-65
2022/04/07 09:25:46;;;;;;;4.50;1.00;;;;;;;;;;5085584;28;20071;-65
2022/04/07 09:28:25;;;;;;;5.43;1.20;;;;;;;;;;5057139;28;20075;-65
2022/04/07 09:30:51;;;;;;;8.35;1.65;;;;;;;;;;5081374;28;20138;-66
2022/04/07 09:33:21;;;;;;;4.30;1.20;;;;;;;;;;5113070;27;20396;-65
2022/04/07 09:36:05;;;;;;;5.95;1.20;;;;;;;;;;5092266;28;20503;-66
2022/04/07 09:38:32;;;;;;;10.15;1.60;;;;;;;;;;5086750;28;20048;-65
2022/04/07 09:41:08;;;;;;;6.28;1.45;;;;;;;;;;5078304;28;20055;-65
2022/04/07 09:44:01;;;;;;;5.30;1.20;;;;;;;;;;5080291;28;20504;-66
2022/04/07 09:46:35;;;;;;;6.63;1.20;;;;;;;;;;5105751;27;20051;-65
2022/04/07 09:49:13;;;;;;;6.05;1.10;;;;;;;;;;5085110;28;20054;-65
2022/04/07 09:51:40;;;;;;;10.07;1.75;;;;;;;;;;5090091;27;20043;-65
2022/04/07 09:54:11;;;;;;;4.13;1.67;;;;;;;;;;5103358;27;20048;-66
2022/04/07 09:56:37;;;;;;;4.30;1.00;;;;;;;;;;5076917;28;20162;-66
2022/04/07 09:59:07;;;;;;;7.18;1.10;;;;;;;;;;5091746;28;20050;-65
2022/04/07 10:01:35;;;;;;;5.28;1.00;;;;;;;;;;5091112;28;20685;-66
2022/04/07 10:04:02;;;;;;;3.40;1.10;;;;;;;;;;5078414;28;20113;-66
2022/04/07 10:06:29;;;;;;;6.10;0.90;;;;;;;;;;5085820;28;20052;-66
2022/04/07 10:08:58;;;;;;;3.95;0.90;;;;;;;;;;5073970;28;20062;-65
2022/04/07 10:11:24;;;;;;;4.80;0.77;;;;;;;;;;5079175;28;20105;-65
2022/04/07 10:13:56;;;;;;;4.35;0.73;;;;;;;;;;5081135;27;20126;-65
2022/04/07 10:16:41;;;;;;;7.13;0.95;;;;;;;;;;5091797;28;20127;-65
2022/04/07 10:19:13;;;;;;;4.45;0.90;;;;;;;;;;5107791;27;20050;-65
2022/04/07 10:21:45;;;;;;;4.75;0.98;;;;;;;;;;5092317;27;20047;-65
2022/04/07 10:24:25;;;;;;;6.30;1.17;;;;;;;;;;5086379;28;20079;-65
2022/04/07 10:27:12;;;;;;;5.82;1.10;;;;;;;;;;5090309;28;20052;-65
2022/04/07 10:29:39;;;;;;;8.05;1.48;;;;;;;;;;5096027;27;20052;-65
2022/04/07 10:32:09;;;;;;;5.93;1.00;;;;;;;;;;5088887;27;20058;-66
2022/04/07 10:34:35;;;;;;;1.92;0.70;;;;;;;;;;5099911;28;20489;-65
2022/04/07 10:37:05;;;;;;;7.53;1.23;;;;;;;;;;5052429;28;20096;-66
2022/04/07 10:39:32;;;;;;;7.82;1.35;;;;;;;;;;5094978;28;20423;-66
2022/04/07 10:41:59;;;;;;;6.25;1.35;;;;;;;;;;5090016;28;20832;-66
2022/04/07 10:44:26;;;;;;;7.13;1.33;;;;;;;;;;5083643;27;20043;-65
2022/04/07 10:47:06;;;;;;;5.95;1.50;;;;;;;;;;5072871;28;20044;-66
2022/04/07 10:49:32;;;;;;;8.70;1.58;;;;;;;;;;5082781;28;20134;-66
2022/04/07 10:51:59;;;;;;;7.15;1.38;;;;;;;;;;5087405;27;20536;-65
2022/04/07 10:54:28;;;;;;;8.10;1.30;;;;;;;;;;5074557;28;20059;-65
2022/04/07 10:56:59;;;;;;;5.93;1.25;;;;;;;;;;5087057;28;20052;-66
2022/04/07 10:59:27;;;;;;;9.70;1.50;;;;;;;;;;5093556;28;20484;-65
2022/04/07 11:02:03;;;;;;;7.40;1.33;;;;;;;;;;5075995;28;20059;-66
2022/04/07 11:04:30;;;;;;;10.77;2.08;;;;;;;;;;5098404;28;20523;-66
2022/04/07 11:07:13;;;;;;;9.57;1.52;;;;;;;;;;5091265;28;20043;-66
2022/04/07 11:09:49;;;;;;;8.32;1.40;;;;;;;;;;5093904;27;20040;-66
2022/04/07 11:12:25;;;;;;;10.65;1.88;;;;;;;;;;5076437;27;20044;-65
2022/04/07 11:14:53;;;;;;;10.77;1.80;;;;;;;;;;5089320;27;20494;-66
2022/04/07 11:17:40;;;;;;;14.20;2.17;;;;;;;;;;5081623;28;20048;-65
2022/04/07 11:20:19;;;;;;;9.95;1.40;;;;;;;;;;5069008;28;20048;-66
2022/04/07 11:22:52;;;;;;;6.90;1.23;;;;;;;;;;5083252;28;20048;-66
2022/04/07 11:25:22;;;;;;;10.68;2.03;;;;;;;;;;5078401;28;20127;-65
2022/04/07 11:28:10;;;;;;;9.30;1.70;;;;;;;;;;5077527;28;20054;-66
2022/04/07 11:30:38;;;;;;;8.60;1.73;;;;;;;;;;5070748;28;20280;-66
2022/04/07 11:33:28;;;;;;;9.50;1.27;;;;;;;;;;5105418;27;20283;-66
2022/04/07 11:35:58;;;;;;;14.25;1.85;;;;;;;;;;5080605;28;20048;-66
2022/04/07 11:38:35;;;;;;;10.75;1.80;;;;;;;;;;5083316;28;20515;-65
2022/04/07 11:41:04;;;;;;;9.48;1.83;;;;;;;;;;5071063;28;20051;-65
2022/04/07 11:43:31;;;;;;;10.70;2.10;;;;;;;;;;5078751;28;20052;-65
2022/04/07 11:45:58;;;;;;;11.98;1.90;;;;;;;;;;5108570;27;20058;-65
2022/04/07 11:48:44;;;;;;;8.45;1.42;;;;;;;;;;5081490;28;20060;-65
2022/04/07 11:51:12;;;;;;;9.15;2.05;;;;;;;;;;5086822;27;20048;-65
2022/04/07 11:53:39;;;;;;;12.03;1.43;;;;;;;;;;5068625;28;20331;-65
2022/04/07 11:56:20;;;;;;;10.07;1.77;;;;;;;;;;5079094;28;20044;-66
2022/04/07 11:58:56;;;;;;;9.32;1.48;;;;;;;;;;5078881;28;20066;-66
2022/04/07 12:01:23;;;;;;;13.68;1.73;;;;;;;;;;5088748;28;20060;-66
2022/04/07 12:03:52;;;;;;;12.57;1.35;;;;;;;;;;5059759;28;20165;-66
2022/04/07 12:06:23;;;;;;;5.97;1.35;;;;;;;;;;5098791;28;20378;-65
2022/04/07 12:08:50;;;;;;;5.57;1.33;;;;;;;;;;5080035;28;20367;-66
2022/04/07 12:11:17;;;;;;;11.32;1.80;;;;;;;;;;5070759;28;20088;-65
2022/04/07 12:13:43;;;;;;;8.93;1.77;;;;;;;;;;5084034;28;20055;-66
2022/04/07 12:16:09;;;;;;;9.23;2.00;;;;;;;;;;5089586;28;20547;-66
2022/04/07 12:18:36;;;;;;;14.20;1.95;;;;;;;;;;5095710;28;20059;-66
2022/04/07 12:21:03;;;;;;;9.63;2.20;;;;;;;;;;5086621;28;20048;-66
2022/04/07 12:23:30;;;;;;;12.55;1.70;;;;;;;;;;5056938;28;20890;-66
2022/04/07 12:26:00;;;;;;;12.95;2.45;;;;;;;;;;5084990;28;20048;-66
2022/04/07 12:28:38;;;;;;;10.40;1.83;;;;;;;;;;5075309;28;20166;-66
2022/04/07 12:31:12;;;;;;;9.73;1.40;;;;;;;;;;5092269;28;20047;-66
2022/04/07 12:33:41;;;;;;;11.40;2.72;;;;;;;;;;5084168;28;20130;-66
2022/04/07 12:36:29;;;;;;;6.65;1.35;;;;;;;;;;5095194;28;20055;-66
2022/04/07 12:39:11;;;;;;;6.90;1.80;;;;;;;;;;5069415;28;20064;-65
2022/04/07 12:41:43;;;;;;;11.60;2.03;;;;;;;;;;5082518;28;20048;-66
2022/04/07 12:44:10;;;;;;;8.23;1.80;;;;;;;;;;5074933;28;20151;-66
2022/04/07 12:46:44;;;;;;;9.40;1.47;;;;;;;;;;5093131;28;20052;-67
2022/04/07 12:49:11;;;;;;;10.93;1.65;;;;;;;;;;5080262;28;20048;-66
2022/04/07 12:51:38;;;;;;;13.10;1.98;;;;;;;;;;5082418;28;20058;-66
2022/04/07 12:54:09;;;;;;;9.73;1.40;;;;;;;;;;5094876;28;20080;-66
2022/04/07 12:56:37;;;;;;;6.72;1.63;;;;;;;;;;5076461;28;20521;-66
2022/04/07 12:59:04;;;;;;;12.07;2.00;;;;;;;;;;5088891;28;20067;-67
2022/04/07 13:01:31;;;;;;;11.32;2.05;;;;;;;;;;5093460;28;20055;-66
2022/04/07 13:03:59;;;;;;;11.50;2.35;;;;;;;;;;5077328;28;20048;-66
2022/04/07 13:06:26;;;;;;;7.90;1.70;;;;;;;;;;5099675;28;20082;-66
2022/04/07 13:08:53;;;;;;;8.65;1.33;;;;;;;;;;5090755;28;20051;-66
2022/04/07 13:11:30;;;;;;;11.07;1.50;;;;;;;;;;5086496;28;20304;-66
2022/04/07 13:13:57;;;;;;;8.87;1.67;;;;;;;;;;5092105;28;20044;-67
2022/04/07 13:16:23;;;;;;;10.32;2.08;;;;;;;;;;5097471;27;20283;-67
2022/04/07 13:18:50;;;;;;;10.70;1.75;;;;;;;;;;5090434;28;20052;-67
2022/04/07 13:21:16;;;;;;;12.15;2.10;;;;;;;;;;5085697;28;20063;-67
2022/04/07 13:23:43;;;;;;;11.35;1.92;;;;;;;;;;5069074;28;20056;-66
2022/04/07 13:26:09;;;;;;;11.52;1.73;;;;;;;;;;5077865;28;20044;-66
2022/04/07 13:28:35;;;;;;;5.20;1.50;;;;;;;;;;5093949;27;20143;-66
2022/04/07 13:31:03;;;;;;;17.00;2.60;;;;;;;;;;5092988;27;20508;-66
2022/04/07 13:33:29;;;;;;;9.45;1.65;;;;;;;;;;5105448;27;20043;-66
2022/04/07 13:35:56;;;;;;;11.23;1.98;;;;;;;;;;5099768;28;20058;-66
2022/04/07 13:38:22;;;;;;;9.63;1.50;;;;;;;;;;5092369;28;20071;-66
2022/04/07 13:40:49;;;;;;;7.32;1.55;;;;;;;;;;5096443;28;20040;-66
2022/04/07 13:43:19;;;;;;;5.03;1.10;;;;;;;;;;5073709;28;20066;-67
2022/04/07 13:45:45;;;;;;;10.55;2.22;;;;;;;;;;5101563;27;20142;-66
2022/04/07 13:48:17;;;;;;;8.77;1.40;;;;;;;;;;5073406;28;20585;-66
2022/04/07 13:50:44;;;;;;;7.95;1.90;;;;;;;;;;5085739;28;20059;-66
2022/04/07 13:53:10;;;;;;;5.57;1.13;;;;;;;;;;5081590;28;20677;-66
2022/04/07 13:55:37;;;;;;;8.73;1.30;;;;;;;;;;5097011;27;20444;-66
2022/04/07 13:58:03;;;;;;;9.63;1.90;;;;;;;;;;5086891;27;20044;-66
2022/04/07 14:00:29;;;;;;;9.38;1.65;;;;;;;;;;5086402;27;20039;-66
2022/04/07 14:02:55;;;;;;;9.13;1.83;;;;;;;;;;5097429;28;20036;-67
2022/04/07 14:05:22;;;;;;;9.07;1.95;;;;;;;;;;5097031;27;20109;-67
2022/04/07 14:07:48;;;;;;;12.95;1.58;;;;;;;;;;5087715;27;20557;-66
2022/04/07 14:10:14;;;;;;;13.13;1.88;;;;;;;;;;5088689;28;20524;-67
2022/04/07 14:12:41;;;;;;;7.85;1.40;;;;;;;;;;5084685;28;20101;-66
2022/04/07 14:15:07;;;;;;;12.55;2.20;;;;;;;;;;5097607;28;20127;-67
2022/04/07 14:17:34;;;;;;;11.65;2.17;;;;;;;;;;5095241;28;20051;-67
2022/04/07 14:20:00;;;;;;;10.73;1.80;;;;;;;;;;5102604;27;20062;-67
2022/04/07 14:22:27;;;;;;;10.75;1.80;;;;;;;;;;5082902;28;20106;-67
2022/04/07 14:24:54;;;;;;;10.45;1.75;;;;;;;;;;5075230;28;20067;-67
2022/04/07 14:27:20;;;;;;;11.63;2.05;;;;;;;;;;5095158;28;20047;-67
2022/04/07 14:29:46;;;;;;;9.65;1.27;;;;;;;;;;5090338;28;20532;-68
2022/04/07 14:32:13;;;;;;;10.40;1.98;;;;;;;;;;5107079;27;20054;-67
2022/04/07 14:34:39;;;;;;;10.40;2.10;;;;;;;;;;5094962;28;20614;-67
2022/04/07 14:37:06;;;;;;;9.70;2.10;;;;;;;;;;5095484;28;20299;-67
2022/04/07 14:39:32;;;;;;;9.57;1.48;;;;;;;;;;5097158;28;20058;-67
2022/04/07 14:41:58;;;;;;;9.82;2.00;;;;;;;;;;5093793;27;20047;-67
2022/04/07 14:44:25;;;;;;;12.10;2.25;;;;;;;;;;5102050;27;20439;-68
2022/04/07 14:46:51;;;;;;;7.78;1.38;;;;;;;;;;5098494;27;20075;-68